sensor_id;sensor_type;location;lat;lon;timestamp;P1;durP1;ratioP1;P2;durP2;ratioP2
69323;SDS011;56470;47.350;8.718;2023-04-06T00:00:49;7.23;;;4.13;;
69323;SDS011;56470;47.350;8.718;2023-04-06T00:03:14;5.60;;;3.43;;
69323;SDS011;56470;47.350;8.718;2023-04-06T00:05:40;6.53;;;3.58;;
69323;SDS011;56470;47.350;8.718;2023-04-06T00:08:06;6.63;;;3.53;;
69323;SDS011;56470;47.350;8.718;2023-04-06T00:10:31;6.30;;;3.30;;
69323;SDS011;56470;47.350;8.718;2023-04-06T00:12:57;6.73;;;3.63;;
69323;SDS011;56470;47.350;8.718;2023-04-06T00:15:24;9.60;;;4.53;;
69323;SDS011;56470;47.350;8.718;2023-04-06T00:17:50;7.00;;;3.65;;
69323;SDS011;56470;47.350;8.718;2023-04-06T00:20:16;8.77;;;4.23;;
69323;SDS011;56470;47.350;8.718;2023-04-06T00:22:42;6.97;;;3.70;;
69323;SDS011;56470;47.350;8.718;2023-04-06T00:25:08;6.97;;;3.50;;
69323;SDS011;56470;47.350;8.718;2023-04-06T00:27:35;7.03;;;3.40;;
69323;SDS011;56470;47.350;8.718;2023-04-06T00:30:00;7.93;;;3.67;;
69323;SDS011;56470;47.350;8.718;2023-04-06T00:32:25;11.57;;;4.53;;
69323;SDS011;56470;47.350;8.718;2023-04-06T00:34:51;9.80;;;4.47;;
69323;SDS011;56470;47.350;8.718;2023-04-06T00:37:16;8.27;;;3.50;;
69323;SDS011;56470;47.350;8.718;2023-04-06T00:39:42;7.80;;;4.43;;
69323;SDS011;56470;47.350;8.718;2023-04-06T00:42:10;10.25;;;3.67;;
69323;SDS011;56470;47.350;8.718;2023-04-06T00:44:42;7.72;;;3.92;;
69323;SDS011;56470;47.350;8.718;2023-04-06T00:47:08;6.17;;;3.73;;
69323;SDS011;56470;47.350;8.718;2023-04-06T00:49:34;8.93;;;4.13;;
69323;SDS011;56470;47.350;8.718;2023-04-06T00:51:59;9.73;;;4.43;;
69323;SDS011;56470;47.350;8.718;2023-04-06T00:54:26;9.82;;;4.70;;
69323;SDS011;56470;47.350;8.718;2023-04-06T00:56:51;9.43;;;4.32;;
69323;SDS011;56470;47.350;8.718;2023-04-06T00:59:17;8.10;;;3.87;;
69323;SDS011;56470;47.350;8.718;2023-04-06T01:01:43;15.07;;;4.83;;
69323;SDS011;56470;47.350;8.718;2023-04-06T01:04:08;7.10;;;3.57;;
69323;SDS011;56470;47.350;8.718;2023-04-06T01:06:33;8.60;;;4.70;;
69323;SDS011;56470;47.350;8.718;2023-04-06T01:08:59;11.37;;;5.20;;
69323;SDS011;56470;47.350;8.718;2023-04-06T01:11:24;10.07;;;4.20;;
69323;SDS011;56470;47.350;8.718;2023-04-06T01:13:51;6.87;;;3.90;;
69323;SDS011;56470;47.350;8.718;2023-04-06T01:16:16;7.50;;;4.25;;
69323;SDS011;56470;47.350;8.718;2023-04-06T01:18:42;7.03;;;4.10;;
69323;SDS011;56470;47.350;8.718;2023-04-06T01:21:07;8.13;;;3.97;;
69323;SDS011;56470;47.350;8.718;2023-04-06T01:23:34;8.07;;;3.90;;
69323;SDS011;56470;47.350;8.718;2023-04-06T01:25:59;6.65;;;3.95;;
69323;SDS011;56470;47.350;8.718;2023-04-06T01:28:25;6.93;;;3.73;;
69323;SDS011;56470;47.350;8.718;2023-04-06T01:30:50;7.90;;;4.40;;
69323;SDS011;56470;47.350;8.718;2023-04-06T01:33:16;7.38;;;4.15;;
69323;SDS011;56470;47.350;8.718;2023-04-06T01:35:41;6.77;;;3.30;;
69323;SDS011;56470;47.350;8.718;2023-04-06T01:38:06;7.83;;;3.73;;
69323;SDS011;56470;47.350;8.718;2023-04-06T01:40:32;7.60;;;3.97;;
69323;SDS011;56470;47.350;8.718;2023-04-06T01:42:57;6.55;;;3.85;;
69323;SDS011;56470;47.350;8.718;2023-04-06T01:45:22;7.20;;;3.80;;
69323;SDS011;56470;47.350;8.718;2023-04-06T01:47:48;7.80;;;4.13;;
69323;SDS011;56470;47.350;8.718;2023-04-06T01:50:13;7.47;;;3.87;;
69323;SDS011;56470;47.350;8.718;2023-04-06T01:52:38;7.00;;;3.43;;
69323;SDS011;56470;47.350;8.718;2023-04-06T01:55:04;6.90;;;4.35;;
69323;SDS011;56470;47.350;8.718;2023-04-06T01:57:30;9.63;;;4.10;;
69323;SDS011;56470;47.350;8.718;2023-04-06T01:59:55;7.53;;;3.77;;
69323;SDS011;56470;47.350;8.718;2023-04-06T02:02:21;8.50;;;4.13;;
69323;SDS011;56470;47.350;8.718;2023-04-06T02:04:46;7.27;;;3.63;;
69323;SDS011;56470;47.350;8.718;2023-04-06T02:07:11;6.63;;;3.73;;
69323;SDS011;56470;47.350;8.718;2023-04-06T02:09:37;8.33;;;4.07;;
69323;SDS011;56470;47.350;8.718;2023-04-06T02:12:02;8.60;;;4.18;;
69323;SDS011;56470;47.350;8.718;2023-04-06T02:14:28;6.87;;;3.40;;
69323;SDS011;56470;47.350;8.718;2023-04-06T02:16:53;6.67;;;3.80;;
69323;SDS011;56470;47.350;8.718;2023-04-06T02:19:19;6.28;;;3.58;;
69323;SDS011;56470;47.350;8.718;2023-04-06T02:21:44;7.77;;;4.13;;
69323;SDS011;56470;47.350;8.718;2023-04-06T02:24:10;6.95;;;3.33;;
69323;SDS011;56470;47.350;8.718;2023-04-06T02:26:35;7.53;;;3.63;;
69323;SDS011;56470;47.350;8.718;2023-04-06T02:29:01;6.97;;;3.90;;
69323;SDS011;56470;47.350;8.718;2023-04-06T02:31:27;8.88;;;3.83;;
69323;SDS011;56470;47.350;8.718;2023-04-06T02:33:52;7.20;;;4.00;;
69323;SDS011;56470;47.350;8.718;2023-04-06T02:36:18;6.50;;;3.50;;
69323;SDS011;56470;47.350;8.718;2023-04-06T02:38:43;5.33;;;3.37;;
69323;SDS011;56470;47.350;8.718;2023-04-06T02:41:08;8.33;;;3.80;;
69323;SDS011;56470;47.350;8.718;2023-04-06T02:43:34;8.07;;;3.87;;
69323;SDS011;56470;47.350;8.718;2023-04-06T02:45:59;6.13;;;3.85;;
69323;SDS011;56470;47.350;8.718;2023-04-06T02:48:25;8.03;;;4.23;;
69323;SDS011;56470;47.350;8.718;2023-04-06T02:50:50;6.83;;;3.60;;
69323;SDS011;56470;47.350;8.718;2023-04-06T02:53:16;7.33;;;3.37;;
69323;SDS011;56470;47.350;8.718;2023-04-06T02:55:41;8.27;;;3.83;;
69323;SDS011;56470;47.350;8.718;2023-04-06T02:58:06;9.50;;;4.23;;
69323;SDS011;56470;47.350;8.718;2023-04-06T03:00:32;6.87;;;4.07;;
69323;SDS011;56470;47.350;8.718;2023-04-06T03:02:57;6.33;;;3.90;;
69323;SDS011;56470;47.350;8.718;2023-04-06T03:05:22;8.23;;;3.73;;
69323;SDS011;56470;47.350;8.718;2023-04-06T03:07:48;6.97;;;3.47;;
69323;SDS011;56470;47.350;8.718;2023-04-06T03:10:13;7.70;;;3.93;;
69323;SDS011;56470;47.350;8.718;2023-04-06T03:12:38;7.00;;;3.20;;
69323;SDS011;56470;47.350;8.718;2023-04-06T03:15:04;7.03;;;4.10;;
69323;SDS011;56470;47.350;8.718;2023-04-06T03:17:30;7.70;;;3.50;;
69323;SDS011;56470;47.350;8.718;2023-04-06T03:19:55;6.33;;;3.67;;
69323;SDS011;56470;47.350;8.718;2023-04-06T03:22:20;8.27;;;4.10;;
69323;SDS011;56470;47.350;8.718;2023-04-06T03:24:46;7.33;;;3.77;;
69323;SDS011;56470;47.350;8.718;2023-04-06T03:27:11;7.30;;;3.38;;
69323;SDS011;56470;47.350;8.718;2023-04-06T03:29:36;8.00;;;3.83;;
69323;SDS011;56470;47.350;8.718;2023-04-06T03:32:02;6.93;;;4.17;;
69323;SDS011;56470;47.350;8.718;2023-04-06T03:34:27;6.33;;;3.27;;
69323;SDS011;56470;47.350;8.718;2023-04-06T03:36:53;8.97;;;4.40;;
69323;SDS011;56470;47.350;8.718;2023-04-06T03:39:18;7.03;;;3.63;;
69323;SDS011;56470;47.350;8.718;2023-04-06T03:41:44;7.60;;;4.00;;
69323;SDS011;56470;47.350;8.718;2023-04-06T03:44:09;7.87;;;3.43;;
69323;SDS011;56470;47.350;8.718;2023-04-06T03:46:35;7.53;;;4.23;;
69323;SDS011;56470;47.350;8.718;2023-04-06T03:49:00;7.03;;;3.20;;
69323;SDS011;56470;47.350;8.718;2023-04-06T03:51:26;6.17;;;2.80;;
69323;SDS011;56470;47.350;8.718;2023-04-06T03:53:52;8.13;;;3.10;;
69323;SDS011;56470;47.350;8.718;2023-04-06T03:56:18;6.78;;;4.07;;
69323;SDS011;56470;47.350;8.718;2023-04-06T03:58:43;8.93;;;4.57;;
69323;SDS011;56470;47.350;8.718;2023-04-06T04:01:10;8.38;;;4.07;;
69323;SDS011;56470;47.350;8.718;2023-04-06T04:03:35;7.13;;;3.13;;
69323;SDS011;56470;47.350;8.718;2023-04-06T04:06:01;8.03;;;3.87;;
69323;SDS011;56470;47.350;8.718;2023-04-06T04:08:26;6.93;;;3.20;;
69323;SDS011;56470;47.350;8.718;2023-04-06T04:10:51;5.85;;;3.28;;
69323;SDS011;56470;47.350;8.718;2023-04-06T04:13:17;7.43;;;3.93;;
69323;SDS011;56470;47.350;8.718;2023-04-06T04:15:42;8.57;;;3.53;;
69323;SDS011;56470;47.350;8.718;2023-04-06T04:18:07;8.17;;;4.10;;
69323;SDS011;56470;47.350;8.718;2023-04-06T04:20:33;6.50;;;2.87;;
69323;SDS011;56470;47.350;8.718;2023-04-06T04:22:59;8.00;;;3.97;;
69323;SDS011;56470;47.350;8.718;2023-04-06T04:25:24;10.27;;;4.20;;
69323;SDS011;56470;47.350;8.718;2023-04-06T04:27:49;8.30;;;4.53;;
69323;SDS011;56470;47.350;8.718;2023-04-06T04:30:15;9.65;;;4.13;;
69323;SDS011;56470;47.350;8.718;2023-04-06T04:32:41;9.23;;;4.17;;
69323;SDS011;56470;47.350;8.718;2023-04-06T04:35:06;7.93;;;3.97;;
69323;SDS011;56470;47.350;8.718;2023-04-06T04:37:35;6.03;;;3.03;;
69323;SDS011;56470;47.350;8.718;2023-04-06T04:40:01;7.10;;;4.18;;
69323;SDS011;56470;47.350;8.718;2023-04-06T04:42:26;6.87;;;3.53;;
69323;SDS011;56470;47.350;8.718;2023-04-06T04:44:51;6.35;;;3.20;;
69323;SDS011;56470;47.350;8.718;2023-04-06T04:47:17;8.03;;;3.80;;
69323;SDS011;56470;47.350;8.718;2023-04-06T04:49:42;7.47;;;3.73;;
69323;SDS011;56470;47.350;8.718;2023-04-06T04:52:07;6.83;;;3.13;;
69323;SDS011;56470;47.350;8.718;2023-04-06T04:54:33;8.67;;;4.20;;
69323;SDS011;56470;47.350;8.718;2023-04-06T04:56:58;10.10;;;3.90;;
69323;SDS011;56470;47.350;8.718;2023-04-06T04:59:23;9.00;;;4.30;;
69323;SDS011;56470;47.350;8.718;2023-04-06T05:01:49;8.17;;;4.33;;
69323;SDS011;56470;47.350;8.718;2023-04-06T05:04:14;9.20;;;4.30;;
69323;SDS011;56470;47.350;8.718;2023-04-06T05:06:40;8.23;;;4.00;;
69323;SDS011;56470;47.350;8.718;2023-04-06T05:09:05;6.35;;;3.20;;
69323;SDS011;56470;47.350;8.718;2023-04-06T05:11:30;7.47;;;4.10;;
69323;SDS011;56470;47.350;8.718;2023-04-06T05:13:56;10.10;;;4.57;;
69323;SDS011;56470;47.350;8.718;2023-04-06T05:16:21;7.83;;;3.77;;
69323;SDS011;56470;47.350;8.718;2023-04-06T05:18:47;7.87;;;4.70;;
69323;SDS011;56470;47.350;8.718;2023-04-06T05:21:13;9.10;;;4.07;;
69323;SDS011;56470;47.350;8.718;2023-04-06T05:23:38;8.33;;;4.33;;
69323;SDS011;56470;47.350;8.718;2023-04-06T05:26:03;8.17;;;3.80;;
69323;SDS011;56470;47.350;8.718;2023-04-06T05:28:29;8.60;;;3.70;;
69323;SDS011;56470;47.350;8.718;2023-04-06T05:30:55;8.10;;;4.03;;
69323;SDS011;56470;47.350;8.718;2023-04-06T05:33:21;7.68;;;4.35;;
69323;SDS011;56470;47.350;8.718;2023-04-06T05:35:47;9.43;;;4.40;;
69323;SDS011;56470;47.350;8.718;2023-04-06T05:38:12;7.97;;;4.00;;
69323;SDS011;56470;47.350;8.718;2023-04-06T05:40:38;9.63;;;4.37;;
69323;SDS011;56470;47.350;8.718;2023-04-06T05:43:05;7.60;;;4.00;;
69323;SDS011;56470;47.350;8.718;2023-04-06T05:45:31;10.82;;;4.45;;
69323;SDS011;56470;47.350;8.718;2023-04-06T05:47:56;8.70;;;3.73;;
69323;SDS011;56470;47.350;8.718;2023-04-06T05:50:22;7.97;;;4.00;;
69323;SDS011;56470;47.350;8.718;2023-04-06T05:52:47;7.80;;;4.23;;
69323;SDS011;56470;47.350;8.718;2023-04-06T05:55:13;7.97;;;4.03;;
69323;SDS011;56470;47.350;8.718;2023-04-06T05:57:38;7.87;;;4.00;;
69323;SDS011;56470;47.350;8.718;2023-04-06T06:00:04;8.73;;;4.37;;
69323;SDS011;56470;47.350;8.718;2023-04-06T06:02:31;8.25;;;4.20;;
69323;SDS011;56470;47.350;8.718;2023-04-06T06:04:57;8.97;;;4.67;;
69323;SDS011;56470;47.350;8.718;2023-04-06T06:07:23;9.50;;;4.30;;
69323;SDS011;56470;47.350;8.718;2023-04-06T06:09:48;9.90;;;5.03;;
69323;SDS011;56470;47.350;8.718;2023-04-06T06:12:14;9.27;;;4.43;;
69323;SDS011;56470;47.350;8.718;2023-04-06T06:14:40;9.23;;;5.23;;
69323;SDS011;56470;47.350;8.718;2023-04-06T06:17:05;10.60;;;4.85;;
69323;SDS011;56470;47.350;8.718;2023-04-06T06:19:30;10.40;;;4.97;;
69323;SDS011;56470;47.350;8.718;2023-04-06T06:21:56;11.00;;;5.43;;
69323;SDS011;56470;47.350;8.718;2023-04-06T06:24:21;9.10;;;4.90;;
69323;SDS011;56470;47.350;8.718;2023-04-06T06:26:47;9.63;;;5.37;;
69323;SDS011;56470;47.350;8.718;2023-04-06T06:29:13;10.67;;;6.13;;
69323;SDS011;56470;47.350;8.718;2023-04-06T06:31:39;12.88;;;4.75;;
69323;SDS011;56470;47.350;8.718;2023-04-06T06:34:05;8.80;;;4.80;;
69323;SDS011;56470;47.350;8.718;2023-04-06T06:36:30;10.55;;;5.55;;
69323;SDS011;56470;47.350;8.718;2023-04-06T06:38:57;9.05;;;5.57;;
69323;SDS011;56470;47.350;8.718;2023-04-06T06:41:23;11.07;;;5.10;;
69323;SDS011;56470;47.350;8.718;2023-04-06T06:43:49;11.50;;;5.85;;
69323;SDS011;56470;47.350;8.718;2023-04-06T06:46:15;10.20;;;4.93;;
69323;SDS011;56470;47.350;8.718;2023-04-06T06:48:40;9.50;;;5.00;;
69323;SDS011;56470;47.350;8.718;2023-04-06T06:51:06;8.70;;;5.43;;
69323;SDS011;56470;47.350;8.718;2023-04-06T06:53:31;12.43;;;6.20;;
69323;SDS011;56470;47.350;8.718;2023-04-06T06:55:56;9.30;;;5.03;;
69323;SDS011;56470;47.350;8.718;2023-04-06T06:58:22;8.07;;;4.68;;
69323;SDS011;56470;47.350;8.718;2023-04-06T07:00:47;10.00;;;4.87;;
69323;SDS011;56470;47.350;8.718;2023-04-06T07:03:16;9.37;;;5.37;;
69323;SDS011;56470;47.350;8.718;2023-04-06T07:05:50;8.88;;;4.47;;
69323;SDS011;56470;47.350;8.718;2023-04-06T07:08:25;9.88;;;5.47;;
69323;SDS011;56470;47.350;8.718;2023-04-06T07:10:51;9.40;;;5.07;;
69323;SDS011;56470;47.350;8.718;2023-04-06T07:13:23;8.30;;;4.90;;
69323;SDS011;56470;47.350;8.718;2023-04-06T07:15:49;8.95;;;5.35;;
69323;SDS011;56470;47.350;8.718;2023-04-06T07:18:18;9.77;;;5.70;;
69323;SDS011;56470;47.350;8.718;2023-04-06T07:20:46;8.87;;;4.60;;
69323;SDS011;56470;47.350;8.718;2023-04-06T07:23:12;8.02;;;3.80;;
69323;SDS011;56470;47.350;8.718;2023-04-06T07:25:37;8.23;;;4.37;;
69323;SDS011;56470;47.350;8.718;2023-04-06T07:28:03;8.77;;;4.83;;
69323;SDS011;56470;47.350;8.718;2023-04-06T07:30:29;10.87;;;5.80;;
69323;SDS011;56470;47.350;8.718;2023-04-06T07:32:55;9.40;;;5.22;;
69323;SDS011;56470;47.350;8.718;2023-04-06T07:35:24;8.85;;;5.05;;
69323;SDS011;56470;47.350;8.718;2023-04-06T07:37:51;9.05;;;5.15;;
69323;SDS011;56470;47.350;8.718;2023-04-06T07:40:16;8.20;;;4.93;;
69323;SDS011;56470;47.350;8.718;2023-04-06T07:42:45;7.30;;;3.95;;
69323;SDS011;56470;47.350;8.718;2023-04-06T07:45:11;8.23;;;5.13;;
69323;SDS011;56470;47.350;8.718;2023-04-06T07:47:36;9.23;;;4.57;;
69323;SDS011;56470;47.350;8.718;2023-04-06T07:50:02;8.93;;;5.33;;
69323;SDS011;56470;47.350;8.718;2023-04-06T07:52:27;7.97;;;4.88;;
69323;SDS011;56470;47.350;8.718;2023-04-06T07:54:52;8.20;;;4.43;;
69323;SDS011;56470;47.350;8.718;2023-04-06T07:57:18;7.60;;;4.43;;
69323;SDS011;56470;47.350;8.718;2023-04-06T07:59:43;7.87;;;4.87;;
69323;SDS011;56470;47.350;8.718;2023-04-06T08:02:09;9.65;;;5.00;;
69323;SDS011;56470;47.350;8.718;2023-04-06T08:04:35;7.67;;;4.47;;
69323;SDS011;56470;47.350;8.718;2023-04-06T08:07:00;8.02;;;4.13;;
69323;SDS011;56470;47.350;8.718;2023-04-06T08:09:26;8.57;;;4.67;;
69323;SDS011;56470;47.350;8.718;2023-04-06T08:11:52;8.43;;;4.68;;
69323;SDS011;56470;47.350;8.718;2023-04-06T08:14:17;9.60;;;4.50;;
69323;SDS011;56470;47.350;8.718;2023-04-06T08:16:43;9.00;;;4.47;;
69323;SDS011;56470;47.350;8.718;2023-04-06T08:19:08;8.97;;;5.10;;
69323;SDS011;56470;47.350;8.718;2023-04-06T08:21:36;8.52;;;4.90;;
69323;SDS011;56470;47.350;8.718;2023-04-06T08:24:02;8.05;;;4.30;;
69323;SDS011;56470;47.350;8.718;2023-04-06T08:26:30;10.60;;;5.30;;
69323;SDS011;56470;47.350;8.718;2023-04-06T08:28:56;8.43;;;4.47;;
69323;SDS011;56470;47.350;8.718;2023-04-06T08:31:21;9.27;;;5.20;;
69323;SDS011;56470;47.350;8.718;2023-04-06T08:33:46;7.03;;;4.30;;
69323;SDS011;56470;47.350;8.718;2023-04-06T08:36:13;8.40;;;4.50;;
69323;SDS011;56470;47.350;8.718;2023-04-06T08:38:39;9.23;;;4.65;;
69323;SDS011;56470;47.350;8.718;2023-04-06T08:41:07;8.23;;;4.75;;
69323;SDS011;56470;47.350;8.718;2023-04-06T08:43:35;8.07;;;3.90;;
69323;SDS011;56470;47.350;8.718;2023-04-06T08:46:07;8.87;;;4.43;;
69323;SDS011;56470;47.350;8.718;2023-04-06T08:48:33;7.97;;;4.40;;
69323;SDS011;56470;47.350;8.718;2023-04-06T08:51:00;10.43;;;5.50;;
69323;SDS011;56470;47.350;8.718;2023-04-06T08:53:27;7.90;;;4.65;;
69323;SDS011;56470;47.350;8.718;2023-04-06T08:55:53;8.33;;;5.10;;
69323;SDS011;56470;47.350;8.718;2023-04-06T08:58:19;7.75;;;4.72;;
69323;SDS011;56470;47.350;8.718;2023-04-06T09:00:46;9.10;;;5.38;;
69323;SDS011;56470;47.350;8.718;2023-04-06T09:03:12;9.07;;;5.93;;
69323;SDS011;56470;47.350;8.718;2023-04-06T09:05:38;12.50;;;4.93;;
69323;SDS011;56470;47.350;8.718;2023-04-06T09:08:04;8.52;;;6.10;;
69323;SDS011;56470;47.350;8.718;2023-04-06T09:10:29;9.53;;;6.40;;
69323;SDS011;56470;47.350;8.718;2023-04-06T09:13:07;10.17;;;5.57;;
69323;SDS011;56470;47.350;8.718;2023-04-06T09:15:33;8.63;;;4.80;;
69323;SDS011;56470;47.350;8.718;2023-04-06T09:17:59;8.20;;;4.28;;
69323;SDS011;56470;47.350;8.718;2023-04-06T09:20:25;10.90;;;4.33;;
69323;SDS011;56470;47.350;8.718;2023-04-06T09:22:53;10.13;;;4.20;;
69323;SDS011;56470;47.350;8.718;2023-04-06T09:25:20;10.35;;;4.68;;
69323;SDS011;56470;47.350;8.718;2023-04-06T09:27:47;9.30;;;4.72;;
69323;SDS011;56470;47.350;8.718;2023-04-06T09:30:14;8.20;;;4.55;;
69323;SDS011;56470;47.350;8.718;2023-04-06T09:32:51;9.47;;;4.87;;
69323;SDS011;56470;47.350;8.718;2023-04-06T09:35:17;8.88;;;4.25;;
69323;SDS011;56470;47.350;8.718;2023-04-06T09:37:45;8.43;;;4.25;;
69323;SDS011;56470;47.350;8.718;2023-04-06T09:40:12;9.75;;;4.47;;
69323;SDS011;56470;47.350;8.718;2023-04-06T09:42:41;7.68;;;4.15;;
69323;SDS011;56470;47.350;8.718;2023-04-06T09:45:07;8.70;;;4.47;;
69323;SDS011;56470;47.350;8.718;2023-04-06T09:47:33;8.88;;;4.15;;
69323;SDS011;56470;47.350;8.718;2023-04-06T09:50:01;8.85;;;4.95;;
69323;SDS011;56470;47.350;8.718;2023-04-06T09:52:38;8.57;;;4.55;;
69323;SDS011;56470;47.350;8.718;2023-04-06T09:55:07;8.30;;;4.07;;
69323;SDS011;56470;47.350;8.718;2023-04-06T10:00:03;7.30;;;3.87;;
69323;SDS011;56470;47.350;8.718;2023-04-06T10:05:09;8.73;;;3.90;;
69323;SDS011;56470;47.350;8.718;2023-04-06T10:07:42;7.20;;;3.55;;
69323;SDS011;56470;47.350;8.718;2023-04-06T10:10:08;9.25;;;4.90;;
69323;SDS011;56470;47.350;8.718;2023-04-06T10:12:37;7.13;;;3.60;;
69323;SDS011;56470;47.350;8.718;2023-04-06T10:15:04;9.25;;;4.72;;
69323;SDS011;56470;47.350;8.718;2023-04-06T10:17:30;10.05;;;4.30;;
69323;SDS011;56470;47.350;8.718;2023-04-06T10:20:20;9.70;;;4.47;;
69323;SDS011;56470;47.350;8.718;2023-04-06T10:22:58;7.20;;;4.10;;
69323;SDS011;56470;47.350;8.718;2023-04-06T10:25:31;7.15;;;3.60;;
69323;SDS011;56470;47.350;8.718;2023-04-06T10:28:01;9.45;;;4.63;;
69323;SDS011;56470;47.350;8.718;2023-04-06T10:30:41;8.40;;;4.33;;
69323;SDS011;56470;47.350;8.718;2023-04-06T10:33:13;7.07;;;4.20;;
69323;SDS011;56470;47.350;8.718;2023-04-06T10:35:40;9.52;;;3.97;;
69323;SDS011;56470;47.350;8.718;2023-04-06T10:38:05;8.65;;;4.50;;
69323;SDS011;56470;47.350;8.718;2023-04-06T10:40:32;6.23;;;3.50;;
69323;SDS011;56470;47.350;8.718;2023-04-06T10:43:08;7.32;;;3.95;;
69323;SDS011;56470;47.350;8.718;2023-04-06T10:45:35;6.20;;;3.65;;
69323;SDS011;56470;47.350;8.718;2023-04-06T10:48:00;9.13;;;4.37;;
69323;SDS011;56470;47.350;8.718;2023-04-06T10:50:37;8.60;;;4.17;;
69323;SDS011;56470;47.350;8.718;2023-04-06T10:53:05;10.15;;;4.15;;
69323;SDS011;56470;47.350;8.718;2023-04-06T10:55:31;7.43;;;3.80;;
69323;SDS011;56470;47.350;8.718;2023-04-06T10:57:56;7.50;;;4.25;;
69323;SDS011;56470;47.350;8.718;2023-04-06T11:00:22;7.13;;;3.60;;
69323;SDS011;56470;47.350;8.718;2023-04-06T11:02:48;7.43;;;3.72;;
69323;SDS011;56470;47.350;8.718;2023-04-06T11:05:14;8.93;;;3.47;;
69323;SDS011;56470;47.350;8.718;2023-04-06T11:07:40;7.15;;;3.47;;
69323;SDS011;56470;47.350;8.718;2023-04-06T11:10:06;9.47;;;4.13;;
69323;SDS011;56470;47.350;8.718;2023-04-06T11:12:32;9.87;;;5.13;;
69323;SDS011;56470;47.350;8.718;2023-04-06T11:14:58;7.70;;;4.35;;
69323;SDS011;56470;47.350;8.718;2023-04-06T11:17:31;7.00;;;3.63;;
69323;SDS011;56470;47.350;8.718;2023-04-06T11:19:58;7.70;;;4.13;;
69323;SDS011;56470;47.350;8.718;2023-04-06T11:22:24;5.85;;;3.30;;
69323;SDS011;56470;47.350;8.718;2023-04-06T11:24:50;7.50;;;3.60;;
69323;SDS011;56470;47.350;8.718;2023-04-06T11:27:16;10.10;;;4.15;;
69323;SDS011;56470;47.350;8.718;2023-04-06T11:29:42;8.57;;;4.13;;
69323;SDS011;56470;47.350;8.718;2023-04-06T11:32:08;7.13;;;3.75;;
69323;SDS011;56470;47.350;8.718;2023-04-06T11:34:37;6.90;;;3.80;;
69323;SDS011;56470;47.350;8.718;2023-04-06T11:37:08;7.18;;;3.67;;
69323;SDS011;56470;47.350;8.718;2023-04-06T11:39:54;6.68;;;3.42;;
69323;SDS011;56470;47.350;8.718;2023-04-06T11:42:25;5.78;;;2.70;;
69323;SDS011;56470;47.350;8.718;2023-04-06T11:44:55;6.83;;;3.03;;
69323;SDS011;56470;47.350;8.718;2023-04-06T11:47:29;6.03;;;3.00;;
69323;SDS011;56470;47.350;8.718;2023-04-06T11:49:55;5.43;;;3.25;;
69323;SDS011;56470;47.350;8.718;2023-04-06T11:52:24;6.45;;;2.72;;
69323;SDS011;56470;47.350;8.718;2023-04-06T11:54:51;9.43;;;3.60;;
69323;SDS011;56470;47.350;8.718;2023-04-06T11:57:18;6.20;;;2.70;;
69323;SDS011;56470;47.350;8.718;2023-04-06T11:59:46;6.28;;;3.05;;
69323;SDS011;56470;47.350;8.718;2023-04-06T12:02:12;6.57;;;3.50;;
69323;SDS011;56470;47.350;8.718;2023-04-06T12:04:37;8.70;;;3.53;;
69323;SDS011;56470;47.350;8.718;2023-04-06T12:07:03;6.27;;;3.30;;
69323;SDS011;56470;47.350;8.718;2023-04-06T12:09:29;7.25;;;3.42;;
69323;SDS011;56470;47.350;8.718;2023-04-06T12:11:55;5.95;;;2.55;;
69323;SDS011;56470;47.350;8.718;2023-04-06T12:14:21;9.63;;;3.07;;
69323;SDS011;56470;47.350;8.718;2023-04-06T12:16:46;5.53;;;3.30;;
69323;SDS011;56470;47.350;8.718;2023-04-06T12:19:12;6.73;;;3.37;;
69323;SDS011;56470;47.350;8.718;2023-04-06T12:21:37;5.90;;;3.03;;
69323;SDS011;56470;47.350;8.718;2023-04-06T12:24:03;5.72;;;3.53;;
69323;SDS011;56470;47.350;8.718;2023-04-06T12:26:29;8.13;;;3.50;;
69323;SDS011;56470;47.350;8.718;2023-04-06T12:28:55;5.68;;;3.10;;
69323;SDS011;56470;47.350;8.718;2023-04-06T12:31:21;5.68;;;3.25;;
69323;SDS011;56470;47.350;8.718;2023-04-06T12:33:48;6.43;;;3.40;;
69323;SDS011;56470;47.350;8.718;2023-04-06T12:36:15;4.78;;;2.40;;
69323;SDS011;56470;47.350;8.718;2023-04-06T12:38:46;6.00;;;3.10;;
69323;SDS011;56470;47.350;8.718;2023-04-06T12:41:12;7.80;;;3.75;;
69323;SDS011;56470;47.350;8.718;2023-04-06T12:43:38;6.43;;;3.30;;
69323;SDS011;56470;47.350;8.718;2023-04-06T12:46:04;5.30;;;2.90;;
69323;SDS011;56470;47.350;8.718;2023-04-06T12:48:30;7.67;;;2.97;;
69323;SDS011;56470;47.350;8.718;2023-04-06T12:50:57;6.28;;;3.17;;
69323;SDS011;56470;47.350;8.718;2023-04-06T12:53:24;6.07;;;2.83;;
69323;SDS011;56470;47.350;8.718;2023-04-06T12:55:50;8.52;;;3.42;;
69323;SDS011;56470;47.350;8.718;2023-04-06T12:58:16;5.27;;;2.60;;
69323;SDS011;56470;47.350;8.718;2023-04-06T13:00:42;12.52;;;3.17;;
69323;SDS011;56470;47.350;8.718;2023-04-06T13:03:07;5.23;;;2.67;;
69323;SDS011;56470;47.350;8.718;2023-04-06T13:05:32;7.70;;;3.13;;
69323;SDS011;56470;47.350;8.718;2023-04-06T13:07:58;6.13;;;3.33;;
69323;SDS011;56470;47.350;8.718;2023-04-06T13:10:23;7.73;;;3.37;;
69323;SDS011;56470;47.350;8.718;2023-04-06T13:12:48;5.63;;;2.95;;
69323;SDS011;56470;47.350;8.718;2023-04-06T13:15:14;5.33;;;2.60;;
69323;SDS011;56470;47.350;8.718;2023-04-06T13:17:40;4.77;;;2.70;;
69323;SDS011;56470;47.350;8.718;2023-04-06T13:20:05;5.32;;;2.38;;
69323;SDS011;56470;47.350;8.718;2023-04-06T13:22:31;5.33;;;3.20;;
69323;SDS011;56470;47.350;8.718;2023-04-06T13:24:57;4.60;;;2.60;;
69323;SDS011;56470;47.350;8.718;2023-04-06T13:27:22;5.90;;;3.00;;
69323;SDS011;56470;47.350;8.718;2023-04-06T13:29:47;5.70;;;3.03;;
69323;SDS011;56470;47.350;8.718;2023-04-06T13:32:13;5.90;;;2.97;;
69323;SDS011;56470;47.350;8.718;2023-04-06T13:34:38;6.03;;;2.85;;
69323;SDS011;56470;47.350;8.718;2023-04-06T13:37:05;4.90;;;2.70;;
69323;SDS011;56470;47.350;8.718;2023-04-06T13:39:31;5.87;;;3.20;;
69323;SDS011;56470;47.350;8.718;2023-04-06T13:41:56;7.70;;;3.13;;
69323;SDS011;56470;47.350;8.718;2023-04-06T13:44:22;5.40;;;3.00;;
69323;SDS011;56470;47.350;8.718;2023-04-06T13:46:47;5.07;;;2.67;;
69323;SDS011;56470;47.350;8.718;2023-04-06T13:49:13;4.90;;;2.20;;
69323;SDS011;56470;47.350;8.718;2023-04-06T13:51:38;5.18;;;2.58;;
69323;SDS011;56470;47.350;8.718;2023-04-06T13:54:04;4.30;;;2.37;;
69323;SDS011;56470;47.350;8.718;2023-04-06T13:56:29;2.72;;;1.63;;
69323;SDS011;56470;47.350;8.718;2023-04-06T13:58:55;4.00;;;1.90;;
69323;SDS011;56470;47.350;8.718;2023-04-06T14:01:21;5.05;;;2.50;;
69323;SDS011;56470;47.350;8.718;2023-04-06T14:03:50;5.70;;;2.80;;
69323;SDS011;56470;47.350;8.718;2023-04-06T14:06:15;5.05;;;2.20;;
69323;SDS011;56470;47.350;8.718;2023-04-06T14:08:40;4.80;;;2.93;;
69323;SDS011;56470;47.350;8.718;2023-04-06T14:11:07;4.93;;;2.50;;
69323;SDS011;56470;47.350;8.718;2023-04-06T14:13:36;4.20;;;2.05;;
69323;SDS011;56470;47.350;8.718;2023-04-06T14:16:02;4.63;;;2.37;;
69323;SDS011;56470;47.350;8.718;2023-04-06T14:18:28;4.43;;;2.13;;
69323;SDS011;56470;47.350;8.718;2023-04-06T14:20:56;5.55;;;2.20;;
69323;SDS011;56470;47.350;8.718;2023-04-06T14:23:22;5.80;;;2.90;;
69323;SDS011;56470;47.350;8.718;2023-04-06T14:25:50;4.20;;;2.47;;
69323;SDS011;56470;47.350;8.718;2023-04-06T14:28:16;4.38;;;1.77;;
69323;SDS011;56470;47.350;8.718;2023-04-06T14:30:42;4.25;;;2.55;;
69323;SDS011;56470;47.350;8.718;2023-04-06T14:33:07;4.07;;;2.50;;
69323;SDS011;56470;47.350;8.718;2023-04-06T14:35:33;5.07;;;2.70;;
69323;SDS011;56470;47.350;8.718;2023-04-06T14:37:58;5.27;;;2.83;;
69323;SDS011;56470;47.350;8.718;2023-04-06T14:40:23;5.57;;;2.57;;
69323;SDS011;56470;47.350;8.718;2023-04-06T14:42:49;4.10;;;2.50;;
69323;SDS011;56470;47.350;8.718;2023-04-06T14:45:16;5.30;;;3.33;;